This is the latest recevied weather packets stored in our database for station/object HK6RM-20. If no packets are shown the sender has not sent any weather packets the latest 10 day(s).
| Time | Temp. | Humidity | Pressure | Rain* | Wind** | Luminosity | Snow |
|---|---|---|---|---|---|---|---|
| 1788135531 | 72° F | 62% | 758.3 mmHg | 0 in | - | - | - |
| 1788134750 | 73° F | 62% | 758.3 mmHg | 0.02 in | - | - | - |
| 1788133610 | 74° F | 62% | 758.3 mmHg | 0 in | - | - | - |
| 1788132830 | 75° F | 62% | 758.3 mmHg | 0.01 in | - | - | - |
| 1788132049 | 76° F | 62% | 758.3 mmHg | 0 in | - | - | - |
| 1788130573 | 77° F | 62% | 757.6 mmHg | 0 in | - | - | - |
| 1788129792 | 78° F | 62% | 757.6 mmHg | 0 in | - | - | - |
| 1788129012 | 79° F | 62% | 757.6 mmHg | 0 in | - | - | - |
| 1788126893 | 80° F | 62% | 756.8 mmHg | 0 in | - | - | - |
| 1788126112 | 81° F | 62% | 756.8 mmHg | 0 in | - | - | - |
| 1788125332 | 82° F | 62% | 756.8 mmHg | 0 in | - | - | - |
| 1788124551 | 79° F | 63% | 756.8 mmHg | 0 in | - | - | - |
| 1788123771 | 80° F | 63% | 756.8 mmHg | 0 in | - | - | - |
| 1788122991 | 81° F | 63% | 756.1 mmHg | 0 in | - | - | - |
| 1788122210 | 82° F | 63% | 756.1 mmHg | 0 in | - | - | - |
| 1788121430 | 82° F | 62% | 756.8 mmHg | 0 in | - | - | - |
| 1788120649 | 82° F | 65% | 756.8 mmHg | 0 in | - | - | - |
| 1788119869 | 83° F | 55% | 756.1 mmHg | 0 in | - | - | - |
| 1788119088 | 83° F | 55% | 756.1 mmHg | 0 in | - | - | - |
| 1788118308 | 83° F | 55% | 756.1 mmHg | 0 in | - | - | - |
| 1788117527 | 83° F | 60% | 757.6 mmHg | 0 in | - | - | - |
| 1788116747 | 83° F | 64% | 757.6 mmHg | 0 in | - | - | - |
| 1788115966 | 84° F | 53% | 756.1 mmHg | 0 in | - | - | - |
| 1788115186 | 85° F | 54% | 756.8 mmHg | 0 in | - | - | - |
| 1788114405 | 84° F | 61% | 758.3 mmHg | 0 in | - | - | - |
* Rain latest hour (hover to see other rain measurements)
** Current wind speed in m/s (hover to see current wind gust speed)